createdAt,value
2023-01-15T00:00:15.259Z,9.30
2023-01-15T00:02:46.820Z,8.70
2023-01-15T00:05:19.264Z,8.90
2023-01-15T00:07:49.351Z,9.50
2023-01-15T00:10:17.663Z,8.40
2023-01-15T00:12:48.885Z,9.30
2023-01-15T00:15:19.265Z,8.80
2023-01-15T00:17:47.554Z,9.50
2023-01-15T00:20:15.700Z,9.20
2023-01-15T00:22:50.934Z,9.30
2023-01-15T00:25:37.409Z,8.80
2023-01-15T00:28:05.388Z,8.60
2023-01-15T00:30:46.129Z,7.80
2023-01-15T00:33:16.585Z,8.90
2023-01-15T00:35:45.127Z,8.60
2023-01-15T00:38:14.684Z,8.40
2023-01-15T00:40:46.121Z,8.50
2023-01-15T00:43:18.164Z,9.70
2023-01-15T00:45:46.496Z,8.00
2023-01-15T00:48:13.820Z,8.20
2023-01-15T00:50:40.861Z,9.30
2023-01-15T00:53:08.322Z,8.80
2023-01-15T00:55:35.481Z,7.50
2023-01-15T00:58:02.803Z,7.70
2023-01-15T01:00:31.290Z,8.40
2023-01-15T01:03:00.138Z,8.10
2023-01-15T01:05:32.903Z,7.80
2023-01-15T01:08:05.871Z,7.10
2023-01-15T01:10:35.347Z,8.00
2023-01-15T01:13:05.648Z,8.50
2023-01-15T01:15:35.374Z,7.40
2023-01-15T01:18:03.732Z,8.30
2023-01-15T01:20:35.792Z,7.30
2023-01-15T01:23:13.354Z,8.70
2023-01-15T01:25:47.844Z,6.90
2023-01-15T01:28:16.191Z,7.80
2023-01-15T01:30:50.790Z,7.80
2023-01-15T01:33:23.323Z,7.40
2023-01-15T01:36:02.420Z,7.30
2023-01-15T01:38:36.857Z,7.60
2023-01-15T01:41:08.234Z,6.10
2023-01-15T01:44:07.475Z,6.60
2023-01-15T01:46:37.908Z,7.10
2023-01-15T01:49:30.210Z,7.20
2023-01-15T01:52:14.035Z,7.60
2023-01-15T01:54:42.144Z,7.10
2023-01-15T01:57:10.857Z,8.10
2023-01-15T01:59:49.359Z,8.40
2023-01-15T02:02:24.823Z,7.20
2023-01-15T02:04:52.211Z,7.30
2023-01-15T02:07:19.641Z,8.30
2023-01-15T02:09:52.507Z,8.70
2023-01-15T02:12:24.768Z,8.30
2023-01-15T02:15:11.222Z,8.10
2023-01-15T02:18:01.658Z,8.10
2023-01-15T02:20:52.781Z,8.50
2023-01-15T02:24:11.873Z,7.40
2023-01-15T02:27:22.534Z,7.70
2023-01-15T02:30:31.177Z,6.40
2023-01-15T02:33:25.487Z,6.80
2023-01-15T06:26:54.579Z,11.20
2023-01-15T06:29:22.073Z,11.80
2023-01-15T06:31:49.809Z,11.00
2023-01-15T06:34:20.226Z,12.00
2023-01-15T06:36:47.946Z,11.20
2023-01-15T06:39:15.375Z,13.60
2023-01-15T06:42:01.281Z,13.80
2023-01-15T06:44:47.543Z,13.80
2023-01-15T06:47:23.896Z,13.20
2023-01-15T06:49:56.329Z,12.80
2023-01-15T06:52:27.931Z,15.40
2023-01-15T06:54:55.461Z,14.70
2023-01-15T06:57:23.051Z,15.40
2023-01-15T06:59:50.472Z,14.30
2023-01-15T07:02:18.603Z,16.40
2023-01-15T07:04:48.179Z,16.80
2023-01-15T07:07:19.009Z,11.50
2023-01-15T07:09:46.381Z,10.70
2023-01-15T07:12:14.157Z,9.30
2023-01-15T07:14:41.883Z,9.50
2023-01-15T07:17:09.546Z,8.70
2023-01-15T07:19:37.191Z,8.40
2023-01-15T07:22:06.855Z,9.20
2023-01-15T07:24:34.288Z,10.10
2023-01-15T07:27:01.685Z,8.90
2023-01-15T07:29:30.795Z,12.00
2023-01-15T07:31:58.947Z,10.70
2023-01-15T07:34:26.285Z,10.00
2023-01-15T07:36:53.694Z,10.00
2023-01-15T07:39:21.193Z,10.50
2023-01-15T07:42:07.176Z,11.10
2023-01-15T07:44:54.258Z,9.60
2023-01-15T07:47:44.480Z,9.60
2023-01-15T07:50:22.771Z,8.90
2023-01-15T07:52:52.895Z,8.50
2023-01-15T07:55:20.992Z,8.60
2023-01-15T07:57:48.538Z,9.80
2023-01-15T08:00:20.168Z,9.20
2023-01-15T08:02:51.246Z,10.20
2023-01-15T08:05:19.192Z,11.40
2023-01-15T08:07:46.962Z,9.80
2023-01-15T08:10:14.301Z,10.20
2023-01-15T08:13:00.292Z,10.80
2023-01-15T08:15:38.871Z,11.10
2023-01-15T08:18:07.486Z,10.30
2023-01-15T08:20:35.209Z,13.50
2023-01-15T08:23:02.579Z,13.50
2023-01-15T08:25:30.031Z,10.60
2023-01-15T08:28:01.599Z,9.80
2023-01-15T08:30:28.877Z,10.20
2023-01-15T08:33:00.971Z,10.40
2023-01-15T08:35:28.524Z,10.70
2023-01-15T08:37:55.950Z,10.20
2023-01-15T08:40:23.540Z,9.90
2023-01-15T08:42:51.072Z,9.70
2023-01-15T08:45:18.398Z,9.80
2023-01-15T08:47:45.753Z,8.20
2023-01-15T08:50:13.302Z,8.60
2023-01-15T08:52:40.744Z,10.30
2023-01-15T08:55:08.526Z,11.10
2023-01-15T08:57:36.178Z,11.20
2023-01-15T09:00:04.255Z,11.40
2023-01-15T09:02:31.523Z,11.70
2023-01-15T09:04:59.242Z,11.90
2023-01-15T09:07:27.753Z,10.30
2023-01-15T09:09:55.162Z,9.80
2023-01-15T09:12:25.276Z,9.60
2023-01-15T09:14:56.866Z,10.60
2023-01-15T09:17:29.923Z,10.80
2023-01-15T09:19:57.175Z,9.60
2023-01-15T09:22:25.644Z,10.20
2023-01-15T09:24:53.244Z,10.90
2023-01-15T09:27:20.520Z,10.30
2023-01-15T09:29:47.916Z,11.00
2023-01-15T09:32:15.365Z,11.30
2023-01-15T09:34:42.861Z,10.70
2023-01-15T09:37:10.616Z,10.80
2023-01-15T09:39:38.742Z,11.90
2023-01-15T09:42:18.438Z,10.50
2023-01-15T09:45:07.834Z,11.40
2023-01-15T09:47:54.790Z,9.50
2023-01-15T09:50:36.410Z,9.90
2023-01-15T09:53:37.002Z,10.10
2023-01-15T09:56:04.937Z,9.80
2023-01-15T09:58:39.753Z,10.40
2023-01-15T10:01:07.677Z,10.50
2023-01-15T10:03:47.221Z,9.80
2023-01-15T10:06:26.233Z,11.00
2023-01-15T10:09:06.733Z,10.50
2023-01-15T10:12:04.905Z,10.70
2023-01-15T10:14:32.244Z,10.10
2023-01-15T10:16:59.606Z,10.90
2023-01-15T10:19:37.113Z,11.90
2023-01-15T10:22:22.367Z,10.30
2023-01-15T10:24:56.720Z,10.10
2023-01-15T10:27:26.374Z,12.30
2023-01-15T10:29:57.814Z,10.40
2023-01-15T10:32:39.029Z,11.80
2023-01-15T10:35:32.936Z,12.60
2023-01-15T10:38:26.955Z,11.80
2023-01-15T10:40:54.258Z,10.40
2023-01-15T10:43:46.928Z,10.30
2023-01-15T10:46:17.114Z,10.30
2023-01-15T10:48:57.410Z,10.50
2023-01-15T10:51:45.719Z,10.50
2023-01-15T10:54:30.326Z,10.40
2023-01-15T10:57:15.890Z,12.30
2023-01-15T10:59:57.720Z,11.60
2023-01-15T11:02:43.296Z,10.30
2023-01-15T11:05:17.030Z,11.30
2023-01-15T11:08:26.311Z,10.20
2023-01-15T11:10:41.388Z,11.30
2023-01-15T11:13:43.564Z,10.70
2023-01-15T11:16:47.881Z,9.70
2023-01-15T11:19:41.729Z,9.70
2023-01-15T11:22:09.891Z,10.00
2023-01-15T11:24:50.701Z,9.90
2023-01-15T11:27:30.295Z,10.80
2023-01-15T11:30:02.071Z,11.70
2023-01-15T11:32:35.214Z,10.90
2023-01-15T11:35:15.532Z,10.50
2023-01-15T11:37:43.006Z,10.90
2023-01-15T11:40:23.754Z,9.80
2023-01-15T11:43:10.289Z,11.10
2023-01-15T11:46:07.666Z,10.40
2023-01-15T11:49:02.160Z,9.90
2023-01-15T11:51:30.947Z,10.10
2023-01-15T11:54:04.476Z,10.30
2023-01-15T11:56:32.343Z,10.30
2023-01-15T11:59:02.892Z,10.90
2023-01-15T12:01:31.864Z,11.80
2023-01-15T12:04:01.064Z,11.00
2023-01-15T12:06:28.355Z,10.60
2023-01-15T12:09:27.176Z,11.00
2023-01-15T12:12:06.856Z,10.60
2023-01-15T12:14:40.351Z,11.20
2023-01-15T12:17:38.316Z,10.70
2023-01-15T12:20:25.333Z,10.80
2023-01-15T12:23:09.921Z,11.40
2023-01-15T12:25:50.011Z,10.70
2023-01-15T12:28:35.183Z,11.20
2023-01-15T12:31:04.144Z,9.40
2023-01-15T12:33:53.666Z,11.20
2023-01-15T12:36:26.940Z,10.00
2023-01-15T12:38:54.197Z,11.90
2023-01-15T12:41:58.242Z,11.20
2023-01-15T12:45:01.167Z,11.20
2023-01-15T13:00:18.538Z,11.30
2023-01-15T13:02:52.335Z,12.30
2023-01-15T13:05:22.193Z,9.20
2023-01-15T13:08:00.697Z,10.60
2023-01-15T13:10:34.353Z,10.40
2023-01-15T13:13:26.223Z,11.10
2023-01-15T13:16:03.419Z,10.20
2023-01-15T13:19:08.864Z,11.40
2023-01-15T13:21:36.765Z,11.10
2023-01-15T13:24:07.508Z,12.50
2023-01-15T13:26:54.686Z,11.70
2023-01-15T13:29:45.020Z,11.50
2023-01-15T13:32:18.486Z,10.40
2023-01-15T13:34:47.995Z,11.50
2023-01-15T13:37:18.070Z,11.20
2023-01-15T13:39:45.580Z,12.10
2023-01-15T13:42:35.062Z,11.60
2023-01-15T13:45:41.744Z,13.00
2023-01-15T13:48:17.951Z,12.10
2023-01-15T13:50:57.337Z,11.70
2023-01-15T13:53:38.289Z,10.80
2023-01-15T13:56:08.642Z,10.20
2023-01-15T13:58:51.437Z,10.90
2023-01-15T14:01:21.749Z,10.00
2023-01-15T14:04:12.041Z,11.00
2023-01-15T14:06:39.676Z,11.40
2023-01-15T14:09:14.185Z,11.60
2023-01-15T14:11:48.087Z,12.20
2023-01-15T14:14:15.298Z,12.00
2023-01-15T14:16:52.013Z,11.60
2023-01-15T18:17:31.928Z,17.10
2023-01-15T18:19:59.209Z,14.30
2023-01-15T18:22:26.629Z,14.90
2023-01-15T18:24:56.573Z,17.60
2023-01-15T18:27:30.697Z,16.20
2023-01-15T18:29:59.779Z,15.10
2023-01-15T18:32:31.149Z,15.90
2023-01-15T18:34:58.524Z,15.60
2023-01-15T18:37:25.777Z,16.30
2023-01-15T18:39:53.212Z,15.60
2023-01-15T18:42:39.214Z,14.80
2023-01-15T18:45:25.886Z,14.20
2023-01-15T18:47:53.202Z,14.30
2023-01-15T18:50:20.462Z,18.60
2023-01-15T18:52:50.681Z,15.90
2023-01-15T18:55:21.864Z,15.30
2023-01-15T18:57:49.417Z,15.00
2023-01-15T19:00:18.180Z,14.80
2023-01-15T19:02:46.244Z,15.10
2023-01-15T19:05:15.689Z,15.20
2023-01-15T19:07:44.183Z,14.20
2023-01-15T19:10:13.026Z,13.80
2023-01-15T19:12:40.428Z,13.50
2023-01-15T19:15:26.880Z,14.50
2023-01-15T19:18:12.922Z,13.20
2023-01-15T19:20:40.171Z,11.90
2023-01-15T19:23:07.568Z,12.70
2023-01-15T19:25:40.640Z,11.60
2023-01-15T19:28:09.850Z,11.00
2023-01-15T19:30:38.734Z,13.40
2023-01-15T19:33:07.016Z,13.00
2023-01-15T19:35:36.009Z,13.20
2023-01-15T19:38:08.707Z,11.40
2023-01-15T19:40:40.796Z,12.20
2023-01-15T19:43:29.043Z,11.40
2023-01-15T19:46:16.334Z,11.40
2023-01-15T19:49:02.174Z,11.10
2023-01-15T19:51:48.147Z,11.30
2023-01-15T19:54:35.940Z,11.30
2023-01-15T19:57:03.173Z,9.80
2023-01-15T19:59:30.513Z,10.90
2023-01-15T20:01:57.783Z,10.50
2023-01-15T20:04:25.032Z,9.50
2023-01-15T20:06:53.869Z,9.50
2023-01-15T20:09:21.401Z,9.40
2023-01-15T20:12:07.495Z,10.00
2023-01-15T20:14:34.831Z,10.50
2023-01-15T20:17:02.119Z,9.60
2023-01-15T20:19:29.440Z,10.00
2023-01-15T20:21:56.699Z,9.80
2023-01-15T20:24:23.988Z,8.20
2023-01-15T20:26:51.286Z,10.00
2023-01-15T20:29:18.569Z,10.40
2023-01-15T20:31:46.594Z,10.00
2023-01-15T20:34:13.929Z,9.30
2023-01-15T20:36:41.286Z,9.80
2023-01-15T20:39:08.728Z,9.30
2023-01-15T20:41:54.661Z,9.10
2023-01-15T20:44:40.740Z,9.80
2023-01-15T20:47:27.992Z,10.30
2023-01-15T20:49:55.388Z,8.80
2023-01-15T20:52:22.718Z,8.80
2023-01-15T20:54:50.918Z,8.00
2023-01-15T20:57:18.219Z,8.00
2023-01-15T20:59:45.582Z,8.10
2023-01-15T21:02:12.981Z,7.80
2023-01-15T21:04:40.280Z,7.00
2023-01-15T21:07:07.761Z,7.10
2023-01-15T21:09:35.098Z,7.60
2023-01-15T21:12:03.670Z,9.30
2023-01-15T21:14:30.895Z,8.90
2023-01-15T21:16:58.257Z,8.90
2023-01-15T21:19:26.332Z,9.70
2023-01-15T21:21:53.626Z,10.10
2023-01-15T21:24:20.839Z,9.50
2023-01-15T21:26:49.088Z,9.50
2023-01-15T21:29:16.586Z,10.20
2023-01-15T21:31:44.119Z,9.00
2023-01-15T21:34:11.665Z,8.90
2023-01-15T21:36:39.126Z,8.70
2023-01-15T21:39:06.394Z,8.80
2023-01-15T21:41:53.221Z,9.10
2023-01-15T21:44:34.903Z,8.30
2023-01-15T21:47:04.401Z,9.70
2023-01-15T21:49:33.674Z,9.50
2023-01-15T21:52:01.796Z,7.40
2023-01-15T21:54:29.427Z,8.80
2023-01-15T21:56:56.789Z,8.10
2023-01-15T21:59:24.646Z,8.80
2023-01-15T22:01:58.441Z,10.30
2023-01-15T22:04:26.961Z,8.70
2023-01-15T22:06:54.552Z,10.00
2023-01-15T22:09:21.912Z,9.10
2023-01-15T22:11:49.665Z,9.70
2023-01-15T22:14:19.303Z,9.40
2023-01-15T22:16:46.881Z,10.60
2023-01-15T22:19:21.236Z,12.60
2023-01-15T22:21:53.909Z,12.60
2023-01-15T22:24:21.500Z,11.10
2023-01-15T22:26:54.984Z,9.60
2023-01-15T22:29:23.763Z,11.40
2023-01-15T22:31:51.303Z,9.60
2023-01-15T22:34:21.541Z,8.90
2023-01-15T22:36:49.901Z,7.80
2023-01-15T22:39:17.436Z,8.50
2023-01-15T22:42:03.683Z,8.70
2023-01-15T22:44:30.972Z,8.20
2023-01-15T22:46:58.223Z,8.10
2023-01-15T22:49:25.431Z,9.10
2023-01-15T22:51:52.633Z,10.30
2023-01-15T22:54:19.926Z,8.70
2023-01-15T22:56:47.464Z,10.00
2023-01-15T22:59:14.931Z,9.10
2023-01-15T23:01:42.222Z,10.10
2023-01-15T23:04:20.391Z,10.20
2023-01-15T23:06:49.387Z,10.60
2023-01-15T23:09:16.999Z,9.20
2023-01-15T23:11:44.266Z,9.90
2023-01-15T23:14:11.836Z,8.90
2023-01-15T23:16:39.002Z,10.60
2023-01-15T23:19:06.483Z,9.80
2023-01-15T23:21:33.779Z,9.70
2023-01-15T23:24:01.658Z,10.30
2023-01-15T23:26:31.684Z,9.70
2023-01-15T23:28:59.682Z,10.50
2023-01-15T23:31:27.634Z,8.80
2023-01-15T23:33:54.898Z,8.70
2023-01-15T23:36:22.340Z,8.30
2023-01-15T23:38:49.646Z,8.20
2023-01-15T23:41:18.707Z,7.50
2023-01-15T23:44:04.770Z,7.30
2023-01-15T23:46:35.754Z,7.50
2023-01-15T23:49:05.791Z,8.60
2023-01-15T23:51:33.107Z,9.60
2023-01-15T23:54:00.535Z,9.40
2023-01-15T23:56:30.394Z,8.80
2023-01-15T23:58:57.880Z,8.70
